Virtual Futura



 METAR AND TAF INFORMATION
METAR FOR RJFU
ADDS - METARS form results

(1047 UTC 18 October 2019)
Data provider http://aviationweather.gov/metar/data/
 
METAR text: RJFU 181022Z 22003KT 160V290 9999 FEW003 SCT005 BKN015 21/21 Q1013 RMK 1ST003 3ST005 6CU015 A2992
Conditions at: RJFU (NAGASAKI(CIV/JMS, JP) observed 1022 UTC 18 October 2019
Temperature: 21.0°C (70°F)
Dewpoint: 21.0°C (70°F) [RH = 100%]
Pressure (altimeter): 29.91 inches Hg (1013.0 mb)
Winds: from the SW (220 degrees) at 3 MPH (3 knots; 1.5 m/s)
Visibility: 6 or more miles (10+ km)
Ceiling: 1500 feet AGL
Clouds: few clouds at 300 feet AGL
scattered clouds at 500 feet AGL
broken clouds at 1500 feet AGL
Weather: no significant weather observed at this time

METAR text: RJFU 181013Z 31004KT 260V350 9999 FEW002 SCT004 BKN005 21/21 Q1013 RMK 1ST002 4ST004 6ST005 A2992
Conditions at: RJFU (NAGASAKI(CIV/JMS, JP) observed 1013 UTC 18 October 2019
Temperature: 21.0°C (70°F)
Dewpoint: 21.0°C (70°F) [RH = 100%]
Pressure (altimeter): 29.91 inches Hg (1013.0 mb)
Winds: from the NW (310 degrees) at 5 MPH (4 knots; 2.1 m/s)
Visibility: 6 or more miles (10+ km)
Ceiling: 500 feet AGL
Clouds: few clouds at 200 feet AGL
scattered clouds at 400 feet AGL
broken clouds at 500 feet AGL
Weather: no significant weather observed at this time

METAR text: RJFU 181000Z 03007KT 330V080 9999 TS FEW002 BKN006 BKN020 FEW020CB 21/21 Q1012
Conditions at: RJFU (NAGASAKI(CIV/JMS, JP) observed 1000 UTC 18 October 2019
Temperature: 21.0°C (70°F)
Dewpoint: 21.0°C (70°F) [RH = 100%]
Pressure (altimeter): 29.88 inches Hg (1012.0 mb)
Winds: from the NNE (30 degrees) at 8 MPH (7 knots; 3.6 m/s)
Visibility: 6 or more miles (10+ km)
Ceiling: 600 feet AGL
Clouds: few clouds at 200 feet AGL
broken clouds at 600 feet AGL
broken clouds at 2000 feet AGL
few clouds at 2000 feet AGL
Weather: TS  (thunderstorm)

Forecast for: AMD
Text: TAF AMD RJFU 181019Z 1810/1912 01008KT 9999 FEW008 SCT010 BKN015
Forecast period: 1000 UTC 18 October 2019 to 1200 UTC 19 October 2019
Forecast type: FROM: standard forecast or significant change
Winds: from the N (10 degrees) at 9 MPH (8 knots; 4.1 m/s)
Visibility: 6 or more miles 10+ km)
Ceiling: 1500 feet AGL
Clouds: few clouds at 800 feet AGL
scattered clouds at 1000 feet AGL
broken clouds at 1500 feet AGL
Weather: no significant weather forecast for this period
Text: TEMPO 1810/1815 FEW003 BKN005 BKN008
Forecast period: 1000 to 1500 UTC 18 October 2019
Forecast type: TEMPORARY: The following changes expected for less than half the time period
Visibility: missing
Ceiling: 500 feet AGL
Clouds: few clouds at 300 feet AGL
broken clouds at 500 feet AGL
broken clouds at 800 feet AGL
Weather: no significant weather forecast for this period

 AIRPORT MAP

 RUNWAY INFORMATION
Runway 14 Runway length 9840 ft Runway width 200 ft
Runway elevation 14 ft Runway displaced threshold 0 ft Runway heading 138
Runway 32 Runway length 9840 ft Runway width 200 ft
Runway elevation 15 ft Runway displaced threshold 0 ft Runway heading 318
Runway 18 Runway length 4350 ft Runway width 100 ft
Runway elevation 18 ft Runway displaced threshold 245 ft Runway heading 174
Runway 36 Runway length 4350 ft Runway width 100 ft
Runway elevation 18 ft Runway displaced threshold 245 ft Runway heading 354

 AIRPORT FREQUENCIES
Type APP Name APP Frequency 119.175 MHZ
Type ATIS Name ATIS Frequency 126.85 MHZ
Type DEP Name DEP Frequency 121 MHZ
Type GND Name GND Frequency 121.6 MHZ
Type TWR Name TWR Frequency 118.5 MHZ

 AIRPORT NEAR NAVIGATION AIDS
Type NDB Name Omura Frequency 343 KHZ
Type TACAN Name Omura Frequency 114050 KHZ
Type VOR-DME Name Nagasaki Frequency 116600 KHZ

Poltica de Cookies

Esta web utiliza cookies para obtener datos estadsticos de la navegacin de sus usuarios. Si continas navegando consideramos que aceptas su uso. Ms informacin X Cerrar